createdAt,value
2022-09-06T00:02:03.344Z,101419.41
2022-09-06T00:04:30.613Z,101421.16
2022-09-06T00:06:57.911Z,101423.84
2022-09-06T00:09:25.425Z,101429.28
2022-09-06T00:11:52.707Z,101424.69
2022-09-06T00:14:20.021Z,101426.41
2022-09-06T00:16:47.448Z,101417.41
2022-09-06T00:19:14.725Z,101418.25
2022-09-06T00:21:42.047Z,101423.69
2022-09-06T00:24:09.730Z,101420.97
2022-09-06T00:26:37.026Z,101413.84
2022-09-06T00:29:04.404Z,101406.56
2022-09-06T00:31:32.780Z,101409.28
2022-09-06T00:34:00.163Z,101413.00
2022-09-06T00:36:27.462Z,101412.00
2022-09-06T00:38:54.843Z,101415.53
2022-09-06T00:41:22.296Z,101412.00
2022-09-06T00:43:49.839Z,101409.28
2022-09-06T00:46:20.896Z,101412.00
2022-09-06T00:48:52.502Z,101409.28
2022-09-06T00:51:22.010Z,101405.72
2022-09-06T00:53:50.764Z,101413.84
2022-09-06T00:56:18.301Z,101402.16
2022-09-06T00:58:46.998Z,101404.88
2022-09-06T01:01:14.482Z,101408.56
2022-09-06T01:03:42.928Z,101407.59
2022-09-06T01:07:07.522Z,101407.59
2022-09-06T01:10:09.938Z,101405.84
2022-09-06T01:13:04.986Z,101405.84
2022-09-06T01:15:47.032Z,101402.28
2022-09-06T01:18:34.891Z,101405.84
2022-09-06T01:21:20.390Z,101399.59
2022-09-06T01:24:25.847Z,101402.16
2022-09-06T01:27:15.736Z,101405.00
2022-09-06T01:29:57.157Z,101404.88
2022-09-06T01:32:31.075Z,101403.13
2022-09-06T01:35:49.290Z,101405.84
2022-09-06T01:38:17.417Z,101396.03
2022-09-06T01:40:44.744Z,101400.44
2022-09-06T01:43:18.196Z,101407.72
2022-09-06T01:46:20.068Z,101407.72
2022-09-06T01:49:09.120Z,101404.16
2022-09-06T01:51:55.886Z,101402.47
2022-09-06T01:54:38.344Z,101396.03
2022-09-06T01:57:23.841Z,101405.84
2022-09-06T02:00:09.182Z,101398.75
2022-09-06T02:02:51.024Z,101396.03
2022-09-06T02:05:48.227Z,101404.16
2022-09-06T02:08:40.301Z,101397.88
2022-09-06T02:11:09.471Z,101402.47
2022-09-06T02:13:44.144Z,101403.31
2022-09-06T02:16:18.316Z,101410.59
2022-09-06T02:19:12.218Z,101405.19
2022-09-06T02:21:45.067Z,101402.47
2022-09-06T02:24:20.101Z,101396.19
2022-09-06T02:26:47.927Z,101399.75
2022-09-06T02:29:16.567Z,101394.47
2022-09-06T02:31:50.798Z,101392.63
2022-09-06T02:34:19.991Z,101393.47
2022-09-06T02:36:47.873Z,101389.94
2022-09-06T02:39:15.132Z,101387.22
2022-09-06T02:41:45.314Z,101378.19
2022-09-06T02:44:12.567Z,101379.06
2022-09-06T02:46:39.931Z,101387.22
2022-09-06T02:49:07.206Z,101388.06
2022-09-06T02:51:39.464Z,101384.31
2022-09-06T02:54:07.449Z,101388.91
2022-09-06T02:56:36.562Z,101388.91
2022-09-06T02:59:07.189Z,101392.47
2022-09-06T03:01:34.819Z,101387.88
2022-09-06T03:04:02.897Z,101387.88
2022-09-06T03:06:30.877Z,101388.06
2022-09-06T03:09:00.088Z,101386.19
2022-09-06T03:11:28.006Z,101380.91
2022-09-06T03:13:55.404Z,101384.50
2022-09-06T03:16:22.749Z,101384.50
2022-09-06T03:18:50.100Z,101389.03
2022-09-06T03:21:17.369Z,101391.75
2022-09-06T03:23:45.967Z,101396.34
2022-09-06T03:26:13.330Z,101400.91
2022-09-06T03:28:40.826Z,101401.75
2022-09-06T03:31:08.304Z,101400.91
2022-09-06T03:33:35.744Z,101393.81
2022-09-06T03:36:03.525Z,101400.06
2022-09-06T03:38:31.189Z,101396.50
2022-09-06T03:40:58.635Z,101397.34
2022-09-06T03:43:27.015Z,101391.09
2022-09-06T03:45:57.386Z,101390.25
2022-09-06T03:48:27.857Z,101388.69
2022-09-06T03:50:57.768Z,101386.28
2022-09-06T03:53:27.347Z,101385.44
2022-09-06T03:55:57.739Z,101382.91
2022-09-06T03:58:29.602Z,101385.75
2022-09-06T04:01:05.026Z,101385.91
2022-09-06T04:03:32.926Z,101380.66
2022-09-06T04:06:00.357Z,101378.97
2022-09-06T04:08:27.826Z,101381.81
2022-09-06T04:10:56.856Z,101379.28
2022-09-06T04:13:27.332Z,101374.88
2022-09-06T04:15:54.671Z,101379.59
2022-09-06T04:18:22.234Z,101380.59
2022-09-06T04:20:51.871Z,101383.31
2022-09-06T04:23:20.506Z,101395.00
2022-09-06T04:25:52.880Z,101397.72
2022-09-06T04:28:21.696Z,101401.44
2022-09-06T04:30:55.165Z,101398.75
2022-09-06T04:33:25.968Z,101397.88
2022-09-06T04:35:57.502Z,101397.00
2022-09-06T04:38:30.066Z,101397.00
2022-09-06T04:40:57.486Z,101397.00
2022-09-06T04:43:25.123Z,101403.31
2022-09-06T04:45:52.580Z,101400.75
2022-09-06T04:48:19.929Z,101396.81
2022-09-06T04:50:47.266Z,101404.91
2022-09-06T04:53:14.541Z,101406.06
2022-09-06T04:55:41.896Z,101414.06
2022-09-06T04:58:09.249Z,101411.66
2022-09-06T05:00:38.706Z,101424.00
2022-09-06T05:03:06.062Z,101428.59
2022-09-06T05:05:33.411Z,101434.00
2022-09-06T05:08:00.677Z,101434.84
2022-09-06T05:10:27.954Z,101431.31
2022-09-06T05:12:55.538Z,101439.44
2022-09-06T05:15:23.674Z,101434.84
2022-09-06T05:17:51.048Z,101436.72
2022-09-06T05:20:18.533Z,101441.47
2022-09-06T05:22:54.362Z,101443.47
2022-09-06T05:25:21.683Z,101444.66
2022-09-06T05:27:49.039Z,101435.50
2022-09-06T05:30:18.100Z,101443.63
2022-09-06T05:32:45.542Z,101435.66
2022-09-06T05:35:12.980Z,101443.63
2022-09-06T05:37:40.317Z,101446.47
2022-09-06T05:40:08.211Z,101441.06
2022-09-06T05:42:35.936Z,101444.78
2022-09-06T05:45:03.522Z,101434.97
2022-09-06T05:47:34.385Z,101439.53
2022-09-06T05:50:02.455Z,101433.28
2022-09-06T05:52:29.776Z,101437.69
2022-09-06T05:54:57.126Z,101441.22
2022-09-06T05:57:24.503Z,101437.50
2022-09-06T05:59:53.560Z,101445.81
2022-09-06T06:02:21.958Z,101445.81
2022-09-06T06:04:49.897Z,101443.09
2022-09-06T06:07:17.194Z,101447.97
2022-09-06T06:09:44.927Z,101448.81
2022-09-06T06:12:12.613Z,101450.69
2022-09-06T06:14:40.021Z,101448.81
2022-09-06T06:17:07.373Z,101446.81
2022-09-06T06:19:34.655Z,101446.97
2022-09-06T06:22:01.971Z,101446.97
2022-09-06T06:24:29.271Z,101454.25
2022-09-06T06:26:56.599Z,101453.22
2022-09-06T06:29:25.299Z,101450.38
2022-09-06T06:31:52.685Z,101449.53
2022-09-06T06:34:21.953Z,101445.97
2022-09-06T06:36:49.412Z,101447.81
2022-09-06T06:39:16.764Z,101450.69
2022-09-06T06:41:44.111Z,101449.00
2022-09-06T06:44:37.772Z,101454.41
2022-09-06T06:47:05.184Z,101456.94
2022-09-06T06:49:32.643Z,101453.41
2022-09-06T06:52:00.013Z,101454.94
2022-09-06T06:54:27.345Z,101448.69
2022-09-06T06:56:54.638Z,101450.38
2022-09-06T06:59:21.937Z,101451.91
2022-09-06T07:01:50.618Z,101442.94
2022-09-06T07:04:18.046Z,101446.81
2022-09-06T07:12:31.069Z,101453.78
2022-09-06T07:14:58.425Z,101453.63
2022-09-06T07:17:25.838Z,101445.50
2022-09-06T07:22:40.965Z,101434.78
2022-09-06T07:25:10.069Z,101441.78
2022-09-06T07:28:41.795Z,101437.03
2022-09-06T07:33:56.744Z,101442.78
2022-09-06T07:36:24.113Z,101441.06
2022-09-06T07:38:51.756Z,101438.69
2022-09-06T07:41:19.930Z,101435.28
2022-09-06T07:43:47.563Z,101435.56
2022-09-06T07:46:17.384Z,101431.16
2022-09-06T07:48:46.789Z,101443.03
2022-09-06T07:51:20.112Z,101437.78
2022-09-06T07:54:12.953Z,101434.72
2022-09-06T07:56:42.710Z,101438.69
2022-09-06T07:59:09.983Z,101442.44
2022-09-06T08:01:41.170Z,101446.25
2022-09-06T08:04:08.690Z,101445.63
2022-09-06T08:09:26.203Z,101450.75
2022-09-06T08:11:53.723Z,101443.44
2022-09-06T08:14:21.095Z,101447.50
2022-09-06T08:16:48.426Z,101435.94
2022-09-06T08:19:15.880Z,101435.41
2022-09-06T08:21:43.955Z,101438.44
2022-09-06T08:24:11.309Z,101439.44
2022-09-06T08:26:45.123Z,101435.19
2022-09-06T08:29:13.474Z,101438.75
2022-09-06T08:31:43.289Z,101434.31
2022-09-06T08:34:12.880Z,101432.78
2022-09-06T08:36:41.327Z,101435.34
2022-09-06T08:39:10.190Z,101423.47
2022-09-06T08:42:00.387Z,101429.59
2022-09-06T08:47:21.841Z,101430.31
2022-09-06T08:50:14.110Z,101436.59
2022-09-06T08:53:16.218Z,101437.44
2022-09-06T08:56:13.230Z,101432.84
2022-09-06T08:59:09.400Z,101437.25
2022-09-06T09:02:03.976Z,101437.97
2022-09-06T09:04:34.663Z,101436.09
2022-09-06T09:07:16.665Z,101436.09
2022-09-06T09:09:44.038Z,101424.25
2022-09-06T09:12:14.559Z,101424.94
2022-09-06T09:14:45.346Z,101427.66
2022-09-06T09:17:32.940Z,101425.63
2022-09-06T09:20:00.231Z,101421.91
2022-09-06T09:22:28.085Z,101417.31
2022-09-06T09:24:59.179Z,101410.91
2022-09-06T09:27:28.816Z,101412.59
2022-09-06T09:32:45.335Z,101407.72
2022-09-06T09:35:27.819Z,101403.13
2022-09-06T09:38:11.773Z,101401.09
2022-09-06T09:40:48.914Z,101400.78
2022-09-06T09:43:26.269Z,101388.78
2022-09-06T09:46:15.762Z,101389.47
2022-09-06T09:49:04.478Z,101384.78
2022-09-06T09:51:35.180Z,101382.72
2022-09-06T09:54:05.497Z,101394.28
2022-09-06T09:56:51.718Z,101388.56
2022-09-06T09:59:22.739Z,101378.38
2022-09-06T10:01:54.003Z,101379.56
2022-09-06T10:04:52.689Z,101369.44
2022-09-06T10:07:22.876Z,101369.25
2022-09-06T10:10:04.841Z,101379.25
2022-09-06T10:12:33.027Z,101376.53
2022-09-06T10:15:02.522Z,101376.41
2022-09-06T10:17:47.532Z,101370.28
2022-09-06T10:20:15.307Z,101371.13
2022-09-06T10:23:00.175Z,101363.81
2022-09-06T10:26:08.482Z,101357.56
2022-09-06T10:28:45.494Z,101352.13
2022-09-06T10:31:38.100Z,101337.72
2022-09-06T10:34:42.500Z,101347.53
2022-09-06T10:37:21.728Z,101347.53
2022-09-06T10:39:55.151Z,101353.81
2022-09-06T10:42:32.356Z,101341.13
2022-09-06T10:45:16.825Z,101346.56
2022-09-06T10:48:13.938Z,101345.53
2022-09-06T10:50:53.109Z,101337.41
2022-09-06T10:53:47.865Z,101331.78
2022-09-06T10:56:27.652Z,101328.25
2022-09-06T11:02:27.982Z,101321.78
2022-09-06T11:11:17.291Z,101297.75
2022-09-06T11:13:44.636Z,101299.59
2022-09-06T11:16:28.783Z,101299.44
2022-09-06T11:19:02.216Z,101300.28
2022-09-06T11:21:38.074Z,101296.56
2022-09-06T11:24:32.981Z,101291.13
2022-09-06T11:27:24.171Z,101286.53
2022-09-06T11:29:56.472Z,101287.38
2022-09-06T11:32:59.007Z,101292.66
2022-09-06T11:35:32.862Z,101285.38
2022-09-06T11:38:00.077Z,101278.91
2022-09-06T11:40:36.542Z,101273.50
2022-09-06T11:43:03.866Z,101277.94
2022-09-06T11:45:43.570Z,101282.47
2022-09-06T11:48:34.809Z,101276.22
2022-09-06T11:51:10.815Z,101272.84
2022-09-06T11:53:58.249Z,101270.25
2022-09-06T11:56:45.759Z,101260.44
2022-09-06T11:59:19.138Z,101264.16
2022-09-06T12:01:55.370Z,101263.47
2022-09-06T12:04:23.757Z,101264.50
2022-09-06T12:07:11.881Z,101256.34
2022-09-06T12:09:46.221Z,101255.50
2022-09-06T12:12:40.982Z,101252.97
2022-09-06T12:15:51.944Z,101246.66
2022-09-06T12:18:40.916Z,101236.84
2022-09-06T12:21:09.769Z,101234.97
2022-09-06T12:23:36.955Z,101237.53
2022-09-06T12:26:11.858Z,101237.53
2022-09-06T12:28:47.372Z,101232.97
2022-09-06T12:31:31.524Z,101223.78
2022-09-06T12:34:07.962Z,101224.81
2022-09-06T12:36:36.659Z,101221.09
2022-09-06T12:39:09.818Z,101224.63
2022-09-06T12:41:43.449Z,101224.63
2022-09-06T12:44:14.462Z,101216.50
2022-09-06T12:46:48.910Z,101217.34
2022-09-06T12:49:20.416Z,101211.06
2022-09-06T12:51:47.985Z,101205.66
2022-09-06T12:54:25.016Z,101203.78
2022-09-06T12:56:53.531Z,101197.34
2022-09-06T12:59:27.220Z,101189.38
2022-09-06T13:02:12.398Z,101189.22
2022-09-06T13:04:46.834Z,101178.38
2022-09-06T13:07:17.692Z,101179.22
2022-09-06T13:09:48.051Z,101182.78
2022-09-06T13:12:29.643Z,101170.03
2022-09-06T13:15:00.357Z,101168.19
2022-09-06T13:17:30.065Z,101153.59
2022-09-06T13:20:30.243Z,101158.03
2022-09-06T13:23:09.766Z,101152.75
2022-09-06T13:25:51.893Z,101149.00
2022-09-06T13:28:29.796Z,101132.72
2022-09-06T13:31:20.570Z,101137.31
2022-09-06T13:33:58.319Z,101120.03
2022-09-06T13:36:30.996Z,101134.44
2022-09-06T13:39:00.092Z,101123.59
2022-09-06T13:41:27.515Z,101130.72
2022-09-06T13:44:03.352Z,101132.56
2022-09-06T13:46:32.394Z,101119.00
2022-09-06T13:48:59.781Z,101122.56
2022-09-06T13:51:27.077Z,101110.88
2022-09-06T13:54:08.612Z,101111.72
2022-09-06T13:56:36.476Z,101106.09
2022-09-06T13:59:04.858Z,101102.53
2022-09-06T14:01:33.237Z,101096.13
2022-09-06T14:04:00.893Z,101096.13
2022-09-06T14:06:28.315Z,101088.81
2022-09-06T14:09:06.775Z,101092.53
2022-09-06T14:11:35.110Z,101090.69
2022-09-06T14:14:02.490Z,101092.38
2022-09-06T14:16:30.254Z,101088.81
2022-09-06T14:18:58.010Z,101089.69
2022-09-06T14:21:25.473Z,101086.97
2022-09-06T14:23:53.048Z,101074.22
2022-09-06T14:26:22.299Z,101070.50
2022-09-06T14:28:50.091Z,101075.06
2022-09-06T14:31:22.954Z,101075.06
2022-09-06T14:33:50.401Z,101070.50
2022-09-06T14:36:20.159Z,101071.34
2022-09-06T14:38:48.473Z,101065.06
2022-09-06T14:41:18.461Z,101063.88
2022-09-06T14:43:53.467Z,101075.59
2022-09-06T14:46:22.607Z,101071.84
2022-09-06T14:49:00.558Z,101074.56
2022-09-06T14:51:29.003Z,101068.97
2022-09-06T14:53:59.422Z,101069.81
2022-09-06T14:56:27.115Z,101069.63
2022-09-06T14:58:57.515Z,101067.78
2022-09-06T15:01:28.766Z,101063.19
2022-09-06T15:03:58.839Z,101065.75
2022-09-06T15:06:27.138Z,101054.91
2022-09-06T15:08:59.147Z,101054.03
2022-09-06T15:11:34.653Z,101051.34
2022-09-06T15:14:04.608Z,101043.00
2022-09-06T15:16:32.829Z,101031.13
2022-09-06T15:19:00.252Z,101026.38
2022-09-06T15:21:27.618Z,101034.53
2022-09-06T15:23:55.187Z,101030.78
2022-09-06T15:26:23.004Z,101021.81
2022-09-06T15:28:50.308Z,101011.78
2022-09-06T15:31:19.431Z,101018.25
2022-09-06T15:33:50.624Z,101012.81
2022-09-06T15:36:18.628Z,101012.81
2022-09-06T15:38:48.199Z,101009.06
2022-09-06T15:41:25.300Z,101012.81
2022-09-06T15:44:01.472Z,101002.81
2022-09-06T15:46:34.979Z,101004.50
2022-09-06T15:49:06.663Z,101005.34
2022-09-06T15:51:35.830Z,100996.16
2022-09-06T15:54:03.222Z,101002.47
2022-09-06T15:56:30.865Z,100993.44
2022-09-06T15:58:58.145Z,100998.72
2022-09-06T16:01:27.071Z,101000.59
2022-09-06T16:04:03.686Z,100988.72
2022-09-06T16:06:37.867Z,100983.28
2022-09-06T16:09:14.293Z,100987.03
2022-09-06T16:11:42.204Z,100976.81
2022-09-06T16:14:12.466Z,100990.56
2022-09-06T16:16:42.371Z,100978.88
2022-09-06T16:19:12.163Z,100984.47
2022-09-06T16:21:41.753Z,100983.63
2022-09-06T16:24:12.327Z,100984.66
2022-09-06T16:26:42.875Z,100981.09
2022-09-06T16:29:11.957Z,100986.66
2022-09-06T16:31:40.794Z,100988.38
2022-09-06T16:34:09.745Z,100984.16
2022-09-06T16:36:37.580Z,100981.44
2022-09-06T16:39:05.807Z,100986.00
2022-09-06T16:41:40.677Z,100984.16
2022-09-06T16:44:14.543Z,100984.16
2022-09-06T16:46:43.379Z,100988.72
2022-09-06T16:49:10.839Z,100996.88
2022-09-06T16:51:38.161Z,100991.44
2022-09-06T16:54:05.543Z,100995.00
2022-09-06T16:56:34.837Z,101001.28
2022-09-06T16:59:05.556Z,101003.16
2022-09-06T17:01:33.891Z,100999.41
2022-09-06T17:04:02.270Z,101001.28
2022-09-06T17:06:30.759Z,101005.66
2022-09-06T17:09:00.748Z,101006.53
2022-09-06T17:11:28.986Z,100996.53
2022-09-06T17:13:57.414Z,100996.53
2022-09-06T17:16:43.752Z,100991.94
2022-09-06T17:19:11.463Z,100994.66
2022-09-06T17:22:06.537Z,100991.94
2022-09-06T17:24:34.111Z,100994.66
2022-09-06T17:27:01.474Z,100990.91
2022-09-06T17:29:29.188Z,100987.34
2022-09-06T17:31:56.529Z,100984.66
2022-09-06T17:34:23.975Z,100983.63
2022-09-06T17:36:51.447Z,100977.16
2022-09-06T17:39:23.680Z,100979.03
2022-09-06T17:41:53.658Z,100969.00
2022-09-06T17:44:25.183Z,100978.88
2022-09-06T17:47:11.467Z,100978.88
2022-09-06T17:49:40.338Z,100974.28
2022-09-06T17:52:07.660Z,100974.44
2022-09-06T17:54:35.159Z,100975.31
2022-09-06T17:57:02.485Z,100971.56
2022-09-06T17:59:35.110Z,100978.88
2022-09-06T18:02:05.155Z,100984.13
2022-09-06T18:04:32.647Z,100977.84
2022-09-06T18:07:00.047Z,100974.94
2022-09-06T18:09:27.391Z,100973.25
2022-09-06T18:11:54.669Z,100979.53
2022-09-06T18:14:22.003Z,100981.22
2022-09-06T18:16:51.675Z,100988.38
2022-09-06T18:19:19.073Z,100993.41
2022-09-06T18:21:47.606Z,100991.59
2022-09-06T18:24:15.449Z,100997.84
2022-09-06T18:26:43.512Z,100999.72
2022-09-06T18:29:14.640Z,101003.09
2022-09-06T18:31:42.889Z,101016.50
2022-09-06T18:34:10.605Z,101016.50
2022-09-06T18:36:38.527Z,101016.50
2022-09-06T18:39:06.509Z,101033.50
2022-09-06T18:41:52.982Z,101032.66
2022-09-06T18:44:21.694Z,101032.47
2022-09-06T18:46:49.752Z,101021.59
2022-09-06T18:49:17.478Z,101029.75
2022-09-06T18:51:45.511Z,101037.75
2022-09-06T18:54:13.220Z,101037.75
2022-09-06T18:56:41.249Z,101038.56
2022-09-06T18:59:08.587Z,101044.00
2022-09-06T19:01:36.593Z,101036.88
2022-09-06T19:04:05.601Z,101046.88
2022-09-06T19:06:34.868Z,101043.16
2022-09-06T19:09:05.326Z,101034.16
2022-09-06T19:11:33.287Z,101037.88
2022-09-06T19:14:01.142Z,101040.44
2022-09-06T19:16:29.653Z,101041.28
2022-09-06T19:19:02.958Z,101030.44
2022-09-06T19:21:30.411Z,101039.41
2022-09-06T19:23:59.858Z,101034.00
2022-09-06T19:26:31.293Z,101034.16
2022-09-06T19:29:01.176Z,101026.00
2022-09-06T19:31:31.314Z,101025.84
2022-09-06T19:33:59.412Z,101026.88
2022-09-06T19:36:28.900Z,101023.28
2022-09-06T19:39:04.397Z,101020.56
2022-09-06T19:41:34.220Z,101026.00
2022-09-06T19:44:03.535Z,101020.41
2022-09-06T19:46:30.899Z,101016.16
2022-09-06T19:48:58.390Z,101024.16
2022-09-06T19:51:26.033Z,101023.28
2022-09-06T19:53:58.134Z,101023.28
2022-09-06T19:56:31.748Z,101017.00
2022-09-06T19:59:01.741Z,101017.84
2022-09-06T20:01:31.175Z,101025.00
2022-09-06T20:04:00.034Z,101020.41
2022-09-06T20:06:27.491Z,101020.41
2022-09-06T20:08:56.742Z,101010.41
2022-09-06T20:11:27.174Z,101004.28
2022-09-06T20:13:54.963Z,101015.81
2022-09-06T20:16:24.902Z,101013.97
2022-09-06T20:18:54.929Z,101004.13
2022-09-06T20:21:22.605Z,101007.69
2022-09-06T20:23:52.132Z,101011.44
2022-09-06T20:26:20.443Z,101008.72
2022-09-06T20:28:47.823Z,101023.13
2022-09-06T20:31:18.069Z,101018.53
2022-09-06T20:33:49.428Z,101014.16
2022-09-06T20:36:18.539Z,101014.16
2022-09-06T20:38:47.656Z,101010.41
2022-09-06T20:41:17.797Z,101011.44
2022-09-06T20:43:46.561Z,101008.72
2022-09-06T20:46:18.217Z,101008.03
2022-09-06T20:48:46.693Z,101009.91
2022-09-06T20:51:18.816Z,101014.28
2022-09-06T20:53:56.051Z,101009.72
2022-09-06T20:56:33.270Z,101005.31
2022-09-06T20:59:02.750Z,101009.06
2022-09-06T21:01:34.760Z,101008.22
2022-09-06T21:04:04.390Z,101009.06
2022-09-06T21:06:36.573Z,101000.22
2022-09-06T21:09:09.659Z,101008.22
2022-09-06T21:11:37.398Z,101002.94
2022-09-06T21:14:05.852Z,101004.66
2022-09-06T21:16:33.892Z,101003.94
2022-09-06T21:19:04.288Z,101007.53
2022-09-06T21:21:33.105Z,101005.81
2022-09-06T21:24:05.397Z,101009.56
2022-09-06T21:26:33.410Z,101010.59
2022-09-06T21:29:00.727Z,101008.88
2022-09-06T21:31:31.376Z,101004.28
2022-09-06T21:34:03.361Z,101007.00
2022-09-06T21:36:36.652Z,101009.72
2022-09-06T21:39:06.898Z,101000.06
2022-09-06T21:41:35.073Z,100998.53
2022-09-06T21:44:04.200Z,101004.16
2022-09-06T21:46:36.235Z,101013.31
2022-09-06T21:49:07.396Z,101004.69
2022-09-06T21:51:35.643Z,101016.53
2022-09-06T21:54:04.510Z,101013.81
2022-09-06T21:56:34.205Z,101017.41
2022-09-06T21:59:02.423Z,101018.41
2022-09-06T22:01:32.103Z,101020.28
2022-09-06T22:04:00.515Z,101026.91
2022-09-06T22:06:30.065Z,101033.19
2022-09-06T22:08:59.146Z,101028.59
2022-09-06T22:11:29.276Z,101024.00
2022-09-06T22:14:01.761Z,101031.97
2022-09-06T22:16:31.171Z,101026.38
2022-09-06T22:18:58.635Z,101026.38
2022-09-06T22:21:25.976Z,101024.50
2022-09-06T22:24:02.046Z,101021.81
2022-09-06T22:26:32.503Z,101025.34
2022-09-06T22:29:02.738Z,101030.78
2022-09-06T22:31:32.039Z,101043.50
2022-09-06T22:34:00.332Z,101042.47
2022-09-06T22:36:28.189Z,101047.91
2022-09-06T22:38:57.506Z,101037.25
2022-09-06T22:41:27.167Z,101026.38
2022-09-06T22:43:55.131Z,101030.97
2022-09-06T22:46:23.200Z,101032.81
2022-09-06T22:48:50.513Z,101037.25
2022-09-06T22:51:17.895Z,101029.09
2022-09-06T22:53:45.184Z,101029.94
2022-09-06T22:56:12.649Z,101030.44
2022-09-06T22:58:39.973Z,101023.31
2022-09-06T23:01:13.059Z,101025.88
2022-09-06T23:03:42.183Z,101026.72
2022-09-06T23:06:09.778Z,101034.66
2022-09-06T23:08:39.024Z,101030.06
2022-09-06T23:11:12.942Z,101028.25
2022-09-06T23:13:44.063Z,101032.78
2022-09-06T23:16:17.422Z,101031.78
2022-09-06T23:18:45.644Z,101023.66
2022-09-06T23:21:18.250Z,101028.06
2022-09-06T23:23:46.699Z,101033.47
2022-09-06T23:26:16.798Z,101030.75
2022-09-06T23:28:44.952Z,101023.47
2022-09-06T23:31:15.447Z,101027.88
2022-09-06T23:33:42.954Z,101026.00
2022-09-06T23:36:12.922Z,101021.59
2022-09-06T23:38:41.452Z,101016.16
2022-09-06T23:41:10.306Z,101023.28
2022-09-06T23:43:38.827Z,101017.84
2022-09-06T23:46:07.163Z,101013.44
2022-09-06T23:48:34.888Z,101014.28
2022-09-06T23:51:02.643Z,101013.44
2022-09-06T23:53:30.138Z,101006.16
2022-09-06T23:55:57.903Z,101016.00
2022-09-06T23:58:25.564Z,101012.41
